Terminal Aerodrome Forecast
Issued by NWS Wilmington, OH

Current Version | Previous Version | Text Only | Print | Product List | Glossary Off
Versions: 1 2 3 4 5 6 7 8 9 10 11 12 13 14 15 16 17 18

772
FTUS41 KILN 171137
TAFCMH
TAF
KCMH 171137Z 1712/1812 19004KT P6SM BKN250
     FM171900 19006KT P6SM -RA OVC050
     FM172300 19005KT P6SM VCSH BKN020 OVC050
     FM180300 20003KT P6SM OVC014=

USA.gov is the U.S. government's official web portal to all federal, state and local government web resources and services.